This is the latest recevied weather packets stored in our database for station/object n7wwk-1. If no packets are shown the sender has not sent any weather packets the latest 10 day(s).
| Time | Temp. | Humidity | Pressure | Rain* | Wind** | Luminosity | Snow |
|---|---|---|---|---|---|---|---|
| 1777540204 | 21.67° C | 91% | 1008.7 hPa | 0 mm | - | 0 W/m² | - |
| 1777530737 | 22.22° C | 84% | 1009.6 hPa | 0 mm | - | 0 W/m² | - |
| 1777530004 | 22.22° C | 83% | 1009.6 hPa | 0 mm | - | 0 W/m² | - |
| 1777522205 | 22.78° C | 79% | 1010.8 hPa | 0 mm | - | 0 W/m² | - |
| 1777520404 | 23.33° C | 80% | 1011.1 hPa | 0 mm | - | 0 W/m² | - |
| 1777516805 | 24.44° C | 75% | 1011.1 hPa | 0 mm | - | 0 W/m² | - |
| 1777512005 | 26.11° C | 65% | 1010.5 hPa | 0 mm | - | 0 W/m² | - |
| 1777511404 | 26.11° C | 64% | 1010.5 hPa | 0 mm | - | 0 W/m² | - |
| 1777509135 | 27.22° C | 59% | 1009.7 hPa | 0 mm | - | 0 W/m² | - |
| 1777507805 | 27.78° C | 58% | 1009.3 hPa | 0 mm | - | 0 W/m² | - |
| 1777504805 | 30.56° C | 51% | 1008.9 hPa | 0 mm | - | 42 W/m² | - |
| 1777501205 | 32.22° C | 47% | 1008.1 hPa | 0 mm | - | 182 W/m² | - |
| 1777500604 | 33.33° C | 44% | 1008.3 hPa | 0 mm | - | 210 W/m² | - |
| 1777499535 | 33.33° C | 43% | 1008.2 hPa | 0 mm | - | 272 W/m² | - |
| 1777496406 | 32.78° C | 45% | 1008.9 hPa | 0 mm | - | 176 W/m² | - |
| 1777495205 | 33.89° C | 43% | 1009.2 hPa | 0 mm | - | 363 W/m² | - |
| 1777494605 | 33.89° C | 43% | 1009.1 hPa | 0 mm | - | 544 W/m² | - |
| 1777491005 | 33.33° C | 41% | 1010.6 hPa | 0 mm | - | 514 W/m² | - |
| 1777490405 | 33.89° C | 44% | 1010.9 hPa | 0 mm | - | 695 W/m² | - |
| 1777489205 | 33.33° C | 45% | 1011.2 hPa | 0 mm | - | 756 W/m² | - |
| 1777486805 | 33.33° C | 47% | 1012.2 hPa | 0 mm | - | 824 W/m² | - |
| 1777485605 | 31.67° C | 53% | 1012.7 hPa | 0 mm | - | 275 W/m² | - |
| 1777475405 | 27.78° C | 67% | 1014.9 hPa | 0 mm | - | 651 W/m² | - |
| 1777471939 | 25.56° C | 77% | 1015.8 hPa | 0 mm | - | 428 W/m² | - |
| 1777467605 | 21.67° C | 90% | 1016.3 hPa | 0 mm | - | 160 W/m² | - |
* Rain latest hour (hover to see other rain measurements)
** Current wind speed in m/s (hover to see current wind gust speed)